M I D A S
Marine Information and Data Acquisition System
Tripno 518 of the Zeeleeuw from 2003-06-18 07:52:01 to 2003-06-18 13:06:49
Back to CruiseResearch ActivitiesStationsMapUnderway DataData graphs

EquipmentUnitsComment
TimeDGPSUTC
LatitudeDGPSDM.mWGS84
LongitudeDGPSDM.mWGS84
HeadingGyrodeg 
SOGDGPSknotsSpeed over ground
COGDGPSdegCourse over ground
DepthEcho soundermeters200 kHz
Missing or incorrect values are displayed as -999
Navigation data collected by the RV Zeeleeuw from 2003-06-18 07:52:01 to 2003-06-18 13:06:49
Time Latitude Longitude Heading SOG COG Depth
2003-06-18 07:53:03 51°14.28 2°55.22 317 10.7 312 -999
2003-06-18 07:54:03 51°14.39 2°54.98 307 11.6 301 -999
2003-06-18 07:55:03 51°14.49 2°54.7 308.1 12.6 298 -999
2003-06-18 07:56:03 51°14.6 2°54.41 311.5 12.5 303 -999
2003-06-18 07:57:03 51°14.7 2°54.12 308.7 13.2 299 -999
2003-06-18 07:58:03 51°14.82 2°53.81 308.5 13.5 300 -999
2003-06-18 07:59:03 51°14.93 2°53.5 309.1 14 300 -999
2003-06-18 08:00:03 51°15.05 2°53.18 309.6 14.1 300 -999
2003-06-18 08:01:03 51°15.17 2°52.85 309.8 14.2 301 -999
2003-06-18 08:02:03 51°15.29 2°52.52 309.4 14.2 299 -999
2003-06-18 08:03:03 51°15.4 2°52.19 309.7 14.3 300 -999
2003-06-18 08:04:03 51°15.52 2°51.86 303.2 14.3 297 -999
2003-06-18 08:05:03 51°15.58 2°51.5 283.5 14.5 278 -999
2003-06-18 08:06:03 51°15.59 2°51.11 274.1 14.8 268 -999
2003-06-18 08:07:03 51°15.58 2°50.72 274.5 14.8 268 -999
2003-06-18 08:08:03 51°15.57 2°50.33 268.2 14.8 263 -999
2003-06-18 08:09:03 51°15.52 2°49.94 263.1 14.8 258 -999
2003-06-18 08:10:03 51°15.46 2°49.56 258 14.8 254 -999
2003-06-18 08:11:03 51°15.4 2°49.18 258.4 14.7 253 -999
2003-06-18 08:12:03 51°15.33 2°48.81 258.9 14.7 254 -999
2003-06-18 08:13:03 51°15.26 2°48.43 259.1 14.7 254 -999
2003-06-18 08:14:03 51°15.2 2°48.05 258.9 14.7 255 -999
2003-06-18 08:15:01 51°15.13 2°47.69 259.3 14.6 255 9
2003-06-18 08:15:57 51°15.07 2°47.35 258.8 14.5 254 8.3
2003-06-18 08:16:57 51°15.01 2°46.98 258.6 14.5 255 8.1
2003-06-18 08:17:57 51°14.93 2°46.61 252.1 14.4 249 8.1
2003-06-18 08:18:57 51°14.86 2°46.25 255.5 14.5 252 8.2
2003-06-18 08:19:57 51°14.79 2°45.88 257.9 14.6 254 8.7
2003-06-18 08:20:57 51°14.71 2°45.51 256.9 14.7 253 9.8
2003-06-18 08:21:57 51°14.64 2°45.14 255.9 14.7 252 10.6
2003-06-18 08:22:57 51°14.56 2°44.77 256.1 14.7 252 11.8
2003-06-18 08:23:57 51°14.49 2°44.4 256 14.7 252 12.8
2003-06-18 08:24:57 51°14.42 2°44.02 259.7 14.6 256 13.6
2003-06-18 08:25:57 51°14.37 2°43.64 263.2 14.7 258 14.3
2003-06-18 08:26:57 51°14.32 2°43.27 263.4 13.5 258 15.1
2003-06-18 08:27:57 51°14.28 2°42.97 263.1 10.3 257 15.3
2003-06-18 08:28:57 51°14.25 2°42.74 263 7.7 256 15.7
2003-06-18 08:29:57 51°14.22 2°42.55 261 6.8 254 15.7
2003-06-18 08:30:57 51°14.19 2°42.38 260.5 6.6 253 15.8
2003-06-18 08:31:57 51°14.16 2°42.22 263.1 6.5 254 16
2003-06-18 08:32:57 51°14.14 2°42.05 268.6 6.4 260 16.1
2003-06-18 08:33:57 51°14.11 2°41.88 260.5 7.6 254 16.2
2003-06-18 08:34:57 51°14.06 2°41.67 250 8.7 246 16.1
2003-06-18 08:35:57 51°14.03 2°41.45 273.6 8.7 266 16.1
2003-06-18 08:36:57 51°14.02 2°41.23 288.2 6.8 277 15.2
2003-06-18 08:37:57 51°14.07 2°41.13   3.7 338 14.7
2003-06-18 08:38:57 51°14.11 2°41.15 62.3 2.4 53 14.2
2003-06-18 08:39:57 51°14.11 2°41.18 80.7 0.8 87 14.3
2003-06-18 08:40:57 51°14.11 2°41.2 76 0.6 93 14.5
2003-06-18 08:41:57 51°14.11 2°41.21 64.2 0.3 63 14.5
2003-06-18 08:42:57 51°14.12 2°41.21 52.9 0.2 3 14.5
2003-06-18 08:43:57 51°14.12 2°41.21 43.5 0.4 322 14.5
2003-06-18 08:44:57 51°14.12 2°41.2 35.2 0.5 300 14.3
2003-06-18 08:45:57 51°14.13 2°41.19 28.3 0.5 298 14.2
2003-06-18 08:46:57 51°14.13 2°41.18 29.7 0.5 302 14.2
2003-06-18 08:47:57 51°14.14 2°41.17 29.7 0.6 315 14
2003-06-18 08:48:57 51°14.14 2°41.16 31.1 0.6 321 14
2003-06-18 08:49:57 51°14.15 2°41.15 33 0.6 323 13.8
2003-06-18 08:50:57 51°14.16 2°41.14 34.3 0.5 329 13.8
2003-06-18 08:51:57 51°14.16 2°41.13 31 0.5 311 13.7
2003-06-18 08:52:57 51°14.17 2°41.12 24.7 0.5 294 13.7
2003-06-18 08:53:57 51°14.17 2°41.11 19.8 0.6 285 13.5
2003-06-18 08:54:57 51°14.17 2°41.09 14.9 0.6 275 13.5
2003-06-18 08:55:57 51°14.17 2°41.07 12.5 0.7 273 13.4
2003-06-18 08:56:57 51°14.18 2°41.06 9.4 0.7 290 13.3
2003-06-18 08:57:57 51°14.18 2°41.04 10 0.8 312 13.2
2003-06-18 08:58:57 51°14.19 2°41.02 10 1 317 13.4
2003-06-18 08:59:57 51°14.21 2°41 11.9 1.1 324 13.3
2003-06-18 09:00:57 51°14.22 2°40.99 13.7 1.1 331 13.2
2003-06-18 09:01:57 51°14.24 2°40.98 16.4 1.1 339 13.2
2003-06-18 09:02:57 51°14.26 2°40.96 17.1 1.1 339 13.1
2003-06-18 09:03:57 51°14.27 2°40.95 21.6 0.9 341 12.8
2003-06-18 09:04:57 51°14.3 2°40.95 7.7 4.2 350 12.6
2003-06-18 09:05:57 51°14.41 2°40.86 343.7 10.7 333 12.5
2003-06-18 09:06:57 51°14.61 2°40.75 351.8 13.2 342 11.6
2003-06-18 09:07:57 51°14.82 2°40.66 354.4 13.4 345 11.1
2003-06-18 09:08:57 51°15.04 2°40.57 354.7 13.5 346 11
2003-06-18 09:09:57 51°15.26 2°40.5 5.8 13.3 359 10.8
2003-06-18 09:10:57 51°15.47 2°40.55 19.1 13.1 12 12.1
2003-06-18 09:11:57 51°15.69 2°40.63 20.4 13.2 14 13.5
2003-06-18 09:12:57 51°15.9 2°40.71 20.5 13.1 14 15.7
2003-06-18 09:13:57 51°16.11 2°40.79 20.2 13.1 14 17.3
2003-06-18 09:14:57 51°16.32 2°40.87 19.1 12.3 12 18.3
2003-06-18 09:15:57 51°16.51 2°40.89 9.2 10.1 1 20.2
2003-06-18 09:16:57 51°16.67 2°40.87 357.6 9.4 348 21.2
2003-06-18 09:17:57 51°16.82 2°40.8 353.5 9.3 344 21.7
2003-06-18 09:18:57 51°16.95 2°40.85 41.7 8.4 34 21.9
2003-06-18 09:19:57 51°17.05 2°40.95 52.8 5.4 45 22.1
2003-06-18 09:20:57 51°17.1 2°41.03 43.1 4.5 35 22.3
2003-06-18 09:21:57 51°17.16 2°41.11 48.6 3.8 42 22.3
2003-06-18 09:22:57 51°17.2 2°41.16 48 2.6 40 22.5
2003-06-18 09:23:57 51°17.23 2°41.2 45.5 1.8 35 22.6
2003-06-18 09:24:57 51°17.25 2°41.22 42.7 1.3 28 22.7
2003-06-18 09:25:57 51°17.26 2°41.23 41.5 0.9 23 22.6
2003-06-18 09:26:57 51°17.28 2°41.23 39.3 0.7 17 22.6
2003-06-18 09:27:57 51°17.29 2°41.23 34.6 0.5 349 22.7
2003-06-18 09:28:57 51°17.29 2°41.23 28.7 0.5 324 22.7
2003-06-18 09:29:59 51°17.31 2°41.24 58.8 0.9 60 22.8
2003-06-18 09:30:57 51°17.31 2°41.26 55.9 0.7 57 22.8
2003-06-18 09:31:57 51°17.32 2°41.27 45.5 0.5 27 22.6
2003-06-18 09:32:57 51°17.33 2°41.27 38.1 0.4 4 22.7
2003-06-18 09:33:59 51°17.33 2°41.27 29.8 0.4 324 22.7
2003-06-18 09:34:57 51°17.34 2°41.26 23.1 0.6 297 22.7
2003-06-18 09:35:57 51°17.34 2°41.24 19.9 0.5 305 22.7
2003-06-18 09:36:57 51°17.35 2°41.23 24.8 0.5 316 22.7
2003-06-18 09:37:59 51°17.35 2°41.22 14.3 0.6 260 22.6
2003-06-18 09:38:57 51°17.35 2°41.2 3.4 0.9 237 22.7
2003-06-18 09:39:57 51°17.34 2°41.18 355.2 0.9 232 22.5
2003-06-18 09:40:57 51°17.33 2°41.16 351.8 0.9 233 22.6
2003-06-18 09:41:57 51°17.32 2°41.14 352.7 0.9 236 22.5
2003-06-18 09:42:57 51°17.31 2°41.12 357 0.8 242 22.4
2003-06-18 09:43:57 51°17.31 2°41.11 8.1 0.7 272 22.5
2003-06-18 09:44:57 51°17.31 2°41.09 16.7 0.7 302 22.4
2003-06-18 09:45:57 51°17.32 2°41.08 28.2 0.4 331 22.4
2003-06-18 09:46:57 51°17.33 2°41.08 44.2 0.3 16 22.4
2003-06-18 09:47:59 51°17.33 2°41.09 64.4 0.7 103 22.4
2003-06-18 09:48:57 51°17.32 2°41.11 78.7 1.2 120 22.5
2003-06-18 09:49:57 51°17.31 2°41.14 97.9 1.6 139 22.6
2003-06-18 09:50:57 51°17.28 2°41.17 115 2.1 149 22.6
2003-06-18 09:51:59 51°17.25 2°41.2 122.2 2.4 152 22.8
2003-06-18 09:52:57 51°17.21 2°41.23 122.6 3 145 22.7
2003-06-18 09:53:57 51°17.19 2°41.3 81.7 2.8 93 22.7
2003-06-18 09:54:57 51°17.21 2°41.35 47.3 2.8 44 22.9
2003-06-18 09:55:59 51°17.26 2°41.43 48.9 6.3 44 23
2003-06-18 09:56:57 51°17.34 2°41.56 42.8 7.6 36 22.9
2003-06-18 09:57:57 51°17.45 2°41.67 38.2 7.9 31 23.2
2003-06-18 09:58:57 51°17.57 2°41.79 38.7 8 32 23.6
2003-06-18 09:59:59 51°17.68 2°41.9 39 8 32 23.2
2003-06-18 10:00:57 51°17.79 2°42.02 44.8 8.2 37 23.1
2003-06-18 10:01:57 51°17.89 2°42.15 44.2 7.9 39 23.2
2003-06-18 10:02:57 51°18 2°42.28 45.5 7.9 39 23.7
2003-06-18 10:03:57 51°18.1 2°42.41 43.4 8 36 23.4
2003-06-18 10:04:57 51°18.2 2°42.53 44.2 6.9 38 23.2
2003-06-18 10:05:57 51°18.28 2°42.64 44.2 6.2 39 23.2
2003-06-18 10:06:57 51°18.36 2°42.74 44 6 37 23.4
2003-06-18 10:07:57 51°18.44 2°42.83 44.2 5.8 37 23
2003-06-18 10:08:57 51°18.52 2°42.92 48.2 5.4 42 22.7
2003-06-18 10:09:57 51°18.57 2°43.01 50.4 4 45 22.5
2003-06-18 10:10:57 51°18.62 2°43.08 53.6 3.6 49 22.6
2003-06-18 10:11:57 51°18.65 2°43.15 61.7 3.4 61 22.5
2003-06-18 10:12:57 51°18.68 2°43.23 60.8 3.4 60 22.6
2003-06-18 10:13:57 51°18.71 2°43.31 59.1 3.4 58 22.5
2003-06-18 10:14:57 51°18.74 2°43.39 60.2 3.4 58 22.5
2003-06-18 10:15:57 51°18.77 2°43.46 59.4 3.4 57 22.4
2003-06-18 10:16:57 51°18.8 2°43.54 59.1 3.5 56 22.2
2003-06-18 10:17:57 51°18.83 2°43.62 60.2 3.5 57 22.1
2003-06-18 10:18:57 51°18.86 2°43.7 59.7 3.5 58 22
2003-06-18 10:19:57 51°18.89 2°43.76 53.4 2.3 47 21.9
2003-06-18 10:20:57 51°18.91 2°43.78 42 1 24 21.9
2003-06-18 10:21:57 51°18.92 2°43.79 34.2 0.7 3 21.9
2003-06-18 10:22:57 51°18.93 2°43.79 36.8 0.6 359 21.9
2003-06-18 10:23:57 51°18.94 2°43.79 38.7 0.6 3 21.9
2003-06-18 10:24:57 51°18.95 2°43.79 42.2 0.4 14 21.9
2003-06-18 10:25:59 51°18.95 2°43.79 44.6 0.4 13 22
2003-06-18 10:26:57 51°18.96 2°43.8 46.6 0.3 34 22.1
2003-06-18 10:27:57 51°18.96 2°43.8 42 0.1 309 22
2003-06-18 10:28:57 51°18.96 2°43.79 35.8 0.3 266 22.1
2003-06-18 10:29:57 51°18.96 2°43.78 30.2 0.5 258 22
2003-06-18 10:30:57 51°18.96 2°43.77 26 0.6 252 22.1
2003-06-18 10:31:59 51°18.96 2°43.75 21.7 0.6 267 22.1
2003-06-18 10:32:57 51°18.96 2°43.74 24.9 0.8 346 22.2
2003-06-18 10:33:57 51°18.97 2°43.78 91.8 2.6 105 22
2003-06-18 10:34:57 51°18.94 2°43.82 134.5 2.1 166 21.9
2003-06-18 10:35:57 51°18.9 2°43.82 151.3 1.9 183 21.8
2003-06-18 10:36:57 51°18.87 2°43.82 154.2 1.8 189 22
2003-06-18 10:37:59 51°18.84 2°43.81 154.5 1.7 188 22
2003-06-18 10:38:57 51°18.82 2°43.8 151.3 1.7 188 22
2003-06-18 10:39:59 51°18.79 2°43.8 137.7 1.6 171 21.9
2003-06-18 10:40:57 51°18.76 2°43.82 131.2 2 163 21.9
2003-06-18 10:41:57 51°18.72 2°43.82 166.1 2.4 185 21.8
2003-06-18 10:42:57 51°18.68 2°43.81 190.1 2.5 198 21.9
2003-06-18 10:43:57 51°18.65 2°43.78 210.7 2.4 209 21.9
2003-06-18 10:44:57 51°18.61 2°43.75 225.7 2.3 217 21.7
2003-06-18 10:45:57 51°18.59 2°43.71 237.7 2.3 223 22
2003-06-18 10:46:57 51°18.56 2°43.66 250.8 2.2 231 21.9
2003-06-18 10:47:57 51°18.54 2°43.62 265.6 2.1 240 22.1
2003-06-18 10:48:57 51°18.53 2°43.57 288.1 1.9 252 22.2
2003-06-18 10:49:59 51°18.52 2°43.52 321.4 1.5 270 22.3
2003-06-18 10:50:57 51°18.53 2°43.49 355.6 1.1 297 22.3
2003-06-18 10:51:57 51°18.55 2°43.48 26.8 2 9 22.5
2003-06-18 10:52:57 51°18.6 2°43.5 20.8 4.3 9 22.6
2003-06-18 10:53:59 51°18.72 2°43.59 43.8 10.8 38 22.3
2003-06-18 10:54:57 51°18.85 2°43.79 49 11.7 43 22
2003-06-18 10:55:57 51°19 2°44 48.1 11.7 43 21.7
2003-06-18 10:56:57 51°19.14 2°44.22 50.6 11.7 46 21.2
2003-06-18 10:57:57 51°19.28 2°44.44 51.7 11.9 47 21.1
2003-06-18 10:58:57 51°19.39 2°44.69 67.5 11.8 64 20.5
2003-06-18 10:59:57 51°19.47 2°44.98 70.1 11.9 66 15.7
2003-06-18 11:00:57 51°19.54 2°45.26 70.1 11.7 67 11.6
2003-06-18 11:01:59 51°19.61 2°45.56 75.7 11.6 74 10.8
2003-06-18 11:02:57 51°19.66 2°45.84 75.3 11.5 73 13.5
2003-06-18 11:03:57 51°19.69 2°46.14 85.2 11.5 85 15.9
2003-06-18 11:04:57 51°19.69 2°46.45 97.9 11.6 100 18.1
2003-06-18 11:05:57 51°19.71 2°46.74 85.1 11.3 84 19.6
2003-06-18 11:06:57 51°19.74 2°47.02 68.8 10 67 20.8
2003-06-18 11:07:57 51°19.81 2°47.26 79.9 9.7 79 21
2003-06-18 11:08:57 51°19.8 2°47.43 83.7 4.5 90 21.6
2003-06-18 11:09:57 51°19.82 2°47.51 53.9 2.3 48 21.5
2003-06-18 11:10:57 51°19.85 2°47.54 52.2 1.5 39 21.6
2003-06-18 11:11:57 51°19.86 2°47.57 72.5 1 87 21.8
2003-06-18 11:12:57 51°19.85 2°47.6 91.3 1.3 129 21.8
2003-06-18 11:13:57 51°19.83 2°47.62 107.8 1.7 152 21.7
2003-06-18 11:14:57 51°19.8 2°47.65 93.8 2.2 115 21.9
2003-06-18 11:15:57 51°19.82 2°47.71 52.4 2.8 45 21.9
2003-06-18 11:16:57 51°19.85 2°47.74 35.7 1.7 11 21.8
2003-06-18 11:17:57 51°19.87 2°47.73 28.3 1.2 345 22
2003-06-18 11:18:57 51°19.89 2°47.72 20.7 1 315 21.8
2003-06-18 11:19:57 51°19.9 2°47.69 16.8 1.1 298 21.9
2003-06-18 11:20:57 51°19.9 2°47.67 19.1 0.9 282 21.8
2003-06-18 11:21:57 51°19.91 2°47.64 13.5 1.1 270 21.7
2003-06-18 11:22:57 51°19.91 2°47.61 7.7 1.1 266 21.8
2003-06-18 11:23:57 51°19.92 2°47.59 28 1.8 353 21.7
2003-06-18 11:24:57 51°19.93 2°47.62 90.9 2 108 22
2003-06-18 11:25:57 51°19.91 2°47.67 95.8 1.8 125 21.9
2003-06-18 11:26:57 51°19.9 2°47.69 109.5 1.3 172 21.9
2003-06-18 11:27:57 51°19.87 2°47.7 119.4 1.5 181 22
2003-06-18 11:28:57 51°19.85 2°47.7 112.1 1.4 181 22
2003-06-18 11:29:57 51°19.83 2°47.7 95.9 0.9 173 21.9
2003-06-18 11:30:57 51°19.82 2°47.7 76 0.5 152 22
2003-06-18 11:31:57 51°19.82 2°47.71 61.8 0.3 92 21.9
2003-06-18 11:32:57 51°19.82 2°47.71 46.1 0.4 2 22
2003-06-18 11:33:57 51°19.83 2°47.71 37.4 0.7 346 22
2003-06-18 11:34:57 51°19.84 2°47.71 28.7 1 337 22.1
2003-06-18 11:35:57 51°19.86 2°47.69 20.2 1.2 324 22.1
2003-06-18 11:36:57 51°19.87 2°47.67 18.6 1.2 322 22.1
2003-06-18 11:37:57 51°19.89 2°47.66 23.5 1.1 330 22
2003-06-18 11:38:57 51°19.91 2°47.64 28.1 0.9 337 21.9
2003-06-18 11:39:57 51°19.92 2°47.63 34.1 0.9 341 22.1
2003-06-18 11:40:57 51°19.93 2°47.63 38.7 0.9 356 22.1
2003-06-18 11:41:57 51°19.95 2°47.63 47.4 0.8 19 22
2003-06-18 11:42:57 51°19.96 2°47.64 63.1 0.7 62 22
2003-06-18 11:43:57 51°19.96 2°47.66 88.3 0.9 128 22.1
2003-06-18 11:44:57 51°19.94 2°47.68 113.2 1.7 146 22.1
2003-06-18 11:45:57 51°19.88 2°47.69 183.9 5.4 191 22
2003-06-18 11:46:57 51°19.76 2°47.56 221.3 11.6 221 21.9
2003-06-18 11:47:57 51°19.59 2°47.31 223.1 15 222 21.7
2003-06-18 11:48:57 51°19.4 2°47.04 222.7 15.4 222 21.3
2003-06-18 11:49:57 51°19.21 2°46.77 223.2 15.4 222 21
2003-06-18 11:50:57 51°19.02 2°46.5 223.3 15.2 222 21.2
2003-06-18 11:51:57 51°18.83 2°46.23 223.6 15.2 222 21.2
2003-06-18 11:52:57 51°18.64 2°45.96 223.5 15.2 222 20.7
2003-06-18 11:53:57 51°18.45 2°45.69 223.7 15.3 222 20.4
2003-06-18 11:54:57 51°18.27 2°45.41 235.2 14.4 232 20.1
2003-06-18 11:55:57 51°18.14 2°45.13 235.1 12.9 232 19.6
2003-06-18 11:56:57 51°18 2°44.88 229.5 12.7 226 19
2003-06-18 11:57:57 51°17.87 2°44.62 249.5 12.1 243 18
2003-06-18 11:58:57 51°17.77 2°44.39 221.7 8.4 219 17.8
2003-06-18 11:59:57 51°17.67 2°44.34 164.9 5.6 175 17.6
2003-06-18 12:00:57 51°17.61 2°44.39 107.6 2.9 133 17.2
2003-06-18 12:01:57 51°17.59 2°44.44 76.8 1.6 103 17.4
2003-06-18 12:02:57 51°17.59 2°44.47 66.8 0.8 113 17.3
2003-06-18 12:03:57 51°17.59 2°44.48 62.1 0.5 111 17.3
2003-06-18 12:04:57 51°17.58 2°44.49 48.3 0.3 106 17.3
2003-06-18 12:05:57 51°17.58 2°44.49 33.1 0.1 245 17.3
2003-06-18 12:06:57 51°17.58 2°44.49 19.4 0.4 261 17.3
2003-06-18 12:07:57 51°17.58 2°44.48 9.5 0.5 249 17.1
2003-06-18 12:08:57 51°17.58 2°44.47 3.6 0.5 245 17.2
2003-06-18 12:09:57 51°17.57 2°44.45 359.9 0.5 238 17.4
2003-06-18 12:10:57 51°17.57 2°44.44 355.9 0.6 240 17.5
2003-06-18 12:11:57 51°17.56 2°44.42 353.4 0.7 236 17.5
2003-06-18 12:12:57 51°17.56 2°44.41 350 0.6 227 17.4
2003-06-18 12:13:57 51°17.55 2°44.4 346.5 0.7 231 17.5
2003-06-18 12:14:57 51°17.54 2°44.39 343.3 0.6 224 17.6
2003-06-18 12:15:57 51°17.54 2°44.37 340.4 0.6 229 17.4
2003-06-18 12:16:57 51°17.53 2°44.36 336.3 0.6 231 17.4
2003-06-18 12:17:57 51°17.52 2°44.35 335.3 0.6 227 17.5
2003-06-18 12:18:57 51°17.52 2°44.33 335.3 0.6 249 17.5
2003-06-18 12:19:57 51°17.52 2°44.32 336.8 0.6 270 17.5
2003-06-18 12:20:57 51°17.52 2°44.3 335 0.8 271 17.5
2003-06-18 12:21:57 51°17.52 2°44.28 335.5 0.9 280 17.6
2003-06-18 12:22:57 51°17.52 2°44.25 337.8 0.9 290 17.6
2003-06-18 12:23:57 51°17.53 2°44.23 336.8 1 289 17.5
2003-06-18 12:24:57 51°17.53 2°44.21 337.2 1 296 17.6
2003-06-18 12:25:57 51°17.54 2°44.18 338.2 1 291 17.6
2003-06-18 12:26:57 51°17.54 2°44.16 338.4 0.9 297 17.7
2003-06-18 12:27:57 51°17.58 2°44.14 19.5 3.1 8 17.5
2003-06-18 12:28:57 51°17.6 2°44.23 94 5.1 100 17.7
2003-06-18 12:29:57 51°17.53 2°44.35 140.5 7.7 144 17.8
2003-06-18 12:30:57 51°17.39 2°44.5 144.3 11.7 146 16.8
2003-06-18 12:31:57 51°17.22 2°44.69 144.5 13.1 147 16.8
2003-06-18 12:32:57 51°17.03 2°44.89 143.4 13.7 145 14.1
2003-06-18 12:33:57 51°16.84 2°45.1 144.2 13.9 145 12.8
2003-06-18 12:34:57 51°16.65 2°45.3 143.7 14 145 11.6
2003-06-18 12:35:57 51°16.47 2°45.52 144.4 13.8 143 11.4
2003-06-18 12:36:57 51°16.28 2°45.74 144.4 14.1 143 10.8
2003-06-18 12:37:57 51°16.09 2°45.97 140 13.9 139 11.8
2003-06-18 12:38:57 51°16.01 2°46.28 93.3 13.3 91 14.5
2003-06-18 12:39:57 51°16 2°46.64 98.7 13.6 98 16.1
2003-06-18 12:40:57 51°15.97 2°46.99 99.3 13.6 98 17
2003-06-18 12:41:57 51°15.94 2°47.35 98.7 13.6 96 16.7
2003-06-18 12:42:57 51°15.91 2°47.71 99.4 13.7 99 16.1
2003-06-18 12:43:57 51°15.87 2°48.07 98.7 13.6 98 15
2003-06-18 12:44:57 51°15.84 2°48.43 99.8 13.4 99 13.2
2003-06-18 12:45:57 51°15.81 2°48.78 99.9 13.5 98 12.1
2003-06-18 12:46:57 51°15.78 2°49.14 99.1 13.6 98 11.3
2003-06-18 12:47:57 51°15.75 2°49.49 96.5 13.6 95 11.8
2003-06-18 12:48:57 51°15.72 2°49.86 102 13.8 100 13.2
2003-06-18 12:49:57 51°15.72 2°50.22 89.5 13.7 88 13.8
2003-06-18 12:50:57 51°15.7 2°50.58 108.8 13.6 108 13.8
2003-06-18 12:51:57 51°15.64 2°50.93 108 13.7 106 13.6
2003-06-18 12:52:57 51°15.58 2°51.27 110.7 13.4 108 13.6
2003-06-18 12:53:57 51°15.51 2°51.61 108 13.3 107 13.4
2003-06-18 12:54:57 51°15.43 2°51.94 118.4 13.3 119 13
2003-06-18 12:55:57 51°15.33 2°52.25 119.7 13.6 118 12.5
2003-06-18 12:56:57 51°15.22 2°52.57 119.1 13.4 117 12
2003-06-18 12:57:57 51°15.12 2°52.88 119.3 13.6 118 11.2
2003-06-18 12:58:57 51°15.01 2°53.2 119.9 13.7 118 10.7
2003-06-18 12:59:57 51°14.89 2°53.51 119.8 13.8 118 10.6
2003-06-18 13:00:57 51°14.77 2°53.82 126.2 13.8 124 10.6
2003-06-18 13:01:57 51°14.67 2°54.15 117.9 13.8 115 11.1
2003-06-18 13:02:57 51°14.58 2°54.48 119.1 13 115 11.1
2003-06-18 13:03:57 51°14.48 2°54.77 123.5 12 120 11.6
2003-06-18 13:04:57 51°14.39 2°55.01 129.1 10 123 11.4
2003-06-18 13:05:57 51°14.29 2°55.21 133.9 8.2 131 12.2